Thursday, June 21, 2018, 11:58 AM EDT
Back to Local

KACK, Nantucket Memorial Airport

Location: Nantucket, MA, United States Lat: 41.25
Local Time: 11:58 AM EDT (15:58 GMT) Lon: -70.067
Time Zone: US/Eastern Elev: 49 ft

Show me the last for .
Show Decoded

2018-06-21 10:53 METAR KACK 211453Z 17004KT 10SM -RA FEW006 BKN048 OVC055 18/17 A2980 RMK AO2
                 SLP090 P0002 60008 T01780167 55000 =
2018-06-21 09:53 METAR KACK 211353Z 00000KT 7SM -RA OVC049 18/17 A2979 RMK AO2 SLP089 P0002
                 T01780167 =
2018-06-21 08:53 METAR KACK 211253Z 00000KT 7SM -RA SCT038 OVC065 18/16 A2980 RMK AO2 SLP089
                 P0004 T01780161 =
2018-06-21 07:53 METAR KACK 211153Z 28004KT 7SM -RA BKN070 OVC090 17/16 A2980 RMK AO2 SLP090
                 P0003 60009 70009 T01720156 10183 20167 51012 =
2018-06-21 06:53 METAR KACK 211053Z 26009KT 6SM RA BR BKN090 OVC110 18/17 A2979 RMK AO2 RAB0957
                 SLP086 P0002 T01780172 =
2018-06-21 05:53 METAR KACK 210953Z 23006KT 10SM BKN090 OVC110 17/16 A2978 RMK AO2 RAE50 SLP085
                 P0002 T01670161 =
2018-06-21 04:53 METAR KACK 210853Z AUTO 24008KT 9SM -RA BKN110 17/16 A2976 RMK AO2 RAB34 SLP079
                 P0002 60002 T01720161 55006 =
2018-06-21 03:53 METAR KACK 210753Z AUTO 22006KT 10SM BKN100 17/16 A2976 RMK AO2 SLP076 T01670156
                 =
2018-06-21 02:53 METAR KACK 210653Z AUTO 24005KT 10SM OVC100 17/16 A2977 RMK AO2 SLP081 T01670156
                 =
2018-06-21 01:53 METAR KACK 210553Z AUTO 22007KT 10SM OVC100 17/16 A2978 RMK AO2 SLP085 T01670156
                 10167 20156 58012 =
2018-06-21 00:53 METAR KACK 210453Z AUTO 22006KT 10SM OVC120 17/16 A2980 RMK AO2 SLP091 T01670156
                 402220111 =
2018-06-20 23:53 METAR KACK 210353Z AUTO 23006KT 10SM CLR 17/16 A2981 RMK AO2 SLP094 T01670156 =
2018-06-20 22:53 METAR KACK 210253Z AUTO 21006KT 10SM CLR 17/16 A2981 RMK AO2 SLP096 T01670156
                 58000 =
2018-06-20 21:53 METAR KACK 210153Z 19004KT 10SM CLR 16/15 A2982 RMK AO2 SLP098 T01610150 =
2018-06-20 20:53 METAR KACK 210053Z 18004KT 10SM CLR 16/15 A2981 RMK AO2 SLP095 T01610150 =
2018-06-20 19:53 METAR KACK 202353Z 20006KT 10SM CLR 16/15 A2982 RMK AO2 SLP096 T01610150 10206
                 20161 56010 =
2018-06-20 18:53 METAR KACK 202253Z 19009KT 10SM CLR 17/15 A2982 RMK AO2 SLP097 T01670150 =
2018-06-20 17:53 METAR KACK 202153Z 20011KT 10SM CLR 18/16 A2983 RMK AO2 SLP100 T01780156 =
2018-06-20 16:53 METAR KACK 202053Z 20012KT 10SM CLR 18/16 A2985 RMK AO2 SLP106 T01830156 56010 =
2018-06-20 15:53 METAR KACK 201953Z 20011KT 10SM CLR 19/16 A2985 RMK AO2 SLP109 T01940161 =
2018-06-20 14:53 METAR KACK 201853Z 19010KT 10SM CLR 19/16 A2986 RMK AO2 SLP112 T01940161 =
2018-06-20 13:53 METAR KACK 201753Z 20009KT 10SM CLR 21/16 A2987 RMK AO2 SLP116 T02060161 10222
                 20189 56012 =
2018-06-20 12:53 METAR KACK 201653Z 19007KT 10SM CLR 19/17 A2988 RMK AO2 SLP119 T01890167 =

Support USWX by starting your Amazon purchase here.